Terminal Aerodrome Forecast
Issued by NWS

Home | Current Version | Previous Version | Graphics & Text | Print | Product List | Glossary On
Versions: 1 2 3 4 5 6 7 8 9 10 11 12 13 14 15 16 17 18 19 20 21
000
FTUS43 KIWX 191720
TAFSBN
TAF
KSBN 191720Z 1918/2018 15006KT 2SM BR OVC004
     FM200100 11006KT 2SM -RA OVC012
     FM200500 10008KT 2SM RA OVC008
     FM200800 09008KT 2SM RA OVC003
     FM201700 19006KT P6SM OVC008=

USA.gov is the U.S. government's official web portal to all federal, state and local government web resources and services.